Informes METAR cercanos

 

LEZL - Sevilla
Actualización: 19/07/2024 05:30
Despejado
Despejado
 Viento del varies
Viento: varies 4 km/h
Temperatura: 23°C
Rocío: 16°C
Humedad: 65%
Barómetro: 1016 hPa
Resumen: Despejado
Visibility: greater than 10 km
2024/07/19 03:30 LEZL 190330Z VRB02KT CAVOK 23/16 Q1016 NOSIG
LEMO - Morón, Sevilla
Actualización: 19/07/2024 05:30
Despejado
Despejado
 Viento del SE
Viento: SE 7 km/h
Temperatura: 22°C
Rocío: 17°C
Humedad: 73%
Barómetro: 1016 hPa
Resumen: Despejado
Visibility: greater than 10 km
2024/07/19 03:30 LEMO 190330Z 14004KT CAVOK 22/17 Q1016 NOSIG
 
LEJR - Jeréz, Cádiz
Actualización: 19/07/2024 05:30
Despejado
Despejado
 Viento del varies
Viento: varies 2 km/h
Temperatura: 20°C
Rocío: 18°C
Humedad: 88%
Barómetro: 1016 hPa
Resumen: Despejado
Visibility: greater than 10 km
2024/07/19 03:30 LEJR 190330Z VRB01KT CAVOK 20/18 Q1016
LERT - Rota. Cádiz
Actualización: 19/07/2024 05:30
Despejado
Despejado
 Viento del NNE
Viento: NNE 11 km/h
Temperatura: 21°C
Rocío: 19°C
Humedad: 88%
Barómetro: 1016 hPa
Resumen: Despejado
Visibility: greater than 10 km
2024/07/19 03:30 LERT 190330Z 02006KT CAVOK 21/19 Q1016 NOSIG
 
LEMG - Málaga
Actualización: 19/07/2024 05:30
Despejado
Despejado
 Viento del ONO
Viento: ONO 13 km/h
Temperatura: 22°C
Rocío: 20°C
Humedad: 88%
Barómetro: 1017 hPa
Resumen: Despejado
Visibility: greater than 10 km
2024/07/19 03:30 LEMG 190330Z 30007KT CAVOK 22/20 Q1017 NOSIG
LEBA - Córdoba
Actualización: 19/07/2024 05:30
Despejado
Despejado
 Viento del calm
Viento: Calma
Temperatura: 21°C
Rocío: 15°C
Humedad: 69%
Barómetro: 1017 hPa
Resumen: Despejado
Visibility: greater than 10 km
2024/07/19 03:30 LEBA 190330Z AUTO 00000KT CAVOK 21/15 Q1017
 
LEGR - Granada
Actualización: 19/07/2024 05:30
Despejado
Despejado
 Viento del varies
Viento: varies 2 km/h
Temperatura: 22°C
Rocío: 14°C
Humedad: 61%
Barómetro: 1020 hPa
Resumen: Despejado
Visibility: greater than 10 km
2024/07/19 03:30 LEGR 190330Z AUTO VRB01KT CAVOK 22/14 Q1020
LEAM - Almería
Actualización: 19/07/2024 05:30
Despejado
Despejado
 Viento del SSO
Viento: SSO 4 km/h
Temperatura: 25°C
Rocío: 23°C
Humedad: 89%
Barómetro: 1017 hPa
Resumen: Despejado
Visibility: greater than 10 km
2024/07/19 03:30 LEAM 190330Z 21002KT CAVOK 25/23 Q1017
 
LEMD - Madrid/Barajas
Actualización: 19/07/2024 05:30
Despejado
Despejado
 Viento del N
Viento: N 6 km/h
Temperatura: 21°C
Rocío: 7°C
Humedad: 40%
Barómetro: 1020 hPa
Resumen: Despejado
Visibility: greater than 10 km
2024/07/19 03:30 LEMD 190330Z 36003KT 340V040 CAVOK 21/07 Q1020 NOSIG
LEBL - Barcelona
Actualización: 19/07/2024 05:30
Few Clouds
Few Clouds
 Viento del SO
Viento: SO 13 km/h
Temperatura: 25°C
Rocío: 23°C
Humedad: 89%
Barómetro: 1017 hPa
Clouds: Few Clouds
Visibility: 10 km
Cloud details: Few Clouds 457 m
2024/07/19 03:30 LEBL 190330Z 23007KT 9999 FEW015 25/23 Q1017 NOSIG